Aegean Princess — ZDID9 — position and weather

sailwx.info

Track history (hours):
 
Tides and Currents Weather Stations Pressure Air Temp Water Temp Dewpoint Dewpoint Depression Visibility Wind Speed Wind Dir Waves Ship Positions

Aegean Princess

Last reported at 2017-Mar-26 12:33 UTC. Time now 2017-Mar-26 13:02 UTC.
Position N 36°08' W 005°22'.

Length 100 m.

Type: Ship. MMSI: 236111476.

Date/timePositionNaut miles runAvg speedWind from/ knotsBaromVisibWave heightAir tempDewpointWater temp
2017-Mar-26 12:33N 36°08' W 005°22'0 0.0
2017-Mar-26 11:33N 36°08' W 005°22'0 0.0
2017-Mar-26 10:33N 36°08' W 005°22'0 0.0
2017-Mar-26 09:33N 36°08' W 005°22'0 0.0
2017-Mar-26 06:33N 36°08' W 005°22'0 0.0
2017-Mar-26 05:33N 36°08' W 005°22'0 0.0
2017-Mar-26 04:33N 36°08' W 005°22'0 0.0
2017-Mar-26 03:34N 36°08' W 005°22'0 0.0
2017-Mar-26 02:33N 36°08' W 005°22'0 0.0
2017-Mar-26 01:33N 36°08' W 005°22'0 0.0
2017-Mar-26 00:29N 36°08' W 005°22'0 0.0
2017-Mar-25 23:33N 36°08' W 005°22'0 0.0
2017-Mar-25 22:31N 36°08' W 005°22'0 0.0
2017-Mar-25 21:26N 36°08' W 005°22'0 0.0
2017-Mar-25 20:33N 36°08' W 005°22'0 0.0
2017-Mar-25 19:28N 36°08' W 005°22'0 0.0
2017-Mar-25 17:33N 36°08' W 005°22'0 0.0
2017-Mar-25 16:33N 36°08' W 005°22'0 0.0
2017-Mar-25 15:24N 36°08' W 005°22'0 0.0
2017-Mar-25 14:32N 36°08' W 005°22'0 0.0
2017-Mar-25 10:26N 36°08' W 005°22'3 1.7
2017-Mar-25 08:33N 36°06' W 005°20'3 3.1
2017-Mar-25 07:30N 36°08' W 005°17'0 0.4
2017-Mar-25 06:33N 36°08' W 005°17'  
2017-Mar-21 06:30N 37°45' E 011°44'1110.5
2017-Mar-21 05:26N 37°40' E 011°57'910.2
2017-Mar-21 04:33N 37°36' E 012°07'1310.3
2017-Mar-21 03:20N 37°29' E 012°20'810.1
2017-Mar-21 02:29N 37°24' E 012°29'1210.5
2017-Mar-21 01:23N 37°19' E 012°42'1110.5
2017-Mar-21 00:19N 37°14' E 012°55'810.5
2017-Mar-20 23:33N 37°11' E 013°04'1010.2
2017-Mar-20 22:33N 37°06' E 013°15'1010.2
2017-Mar-20 21:33N 37°02' E 013°26'1010.0
2017-Mar-20 20:33N 36°58' E 013°38'1010.3
2017-Mar-20 19:33N 36°54' E 013°50'1110.5
2017-Mar-20 18:33N 36°50' E 014°02'10 9.8
2017-Mar-20 17:33N 36°46' E 014°13'10 9.8
2017-Mar-20 16:33N 36°42' E 014°24'10 9.7
2017-Mar-20 15:33N 36°39' E 014°35'10 9.7
2017-Mar-20 14:33N 36°36' E 014°47'10 9.5
2017-Mar-20 13:31N 36°34' E 014°59'10 9.7
2017-Mar-20 12:30N 36°34' E 015°11'9 9.8
2017-Mar-20 11:33N 36°33' E 015°23'10 9.7
2017-Mar-20 10:31N 36°33' E 015°36'9 9.8
2017-Mar-20 09:33N 36°33' E 015°47'10 9.8
2017-Mar-20 08:33N 36°33' E 015°60'10 9.6
2017-Mar-20 07:32N 36°32' E 016°12'365 8.1
2017-Mar-18 10:32N 37°38' E 023°42'10 9.9
2017-Mar-18 09:33N 37°47' E 023°38'8 8.4
2017-Mar-18 08:33N 37°55' E 023°34'0 0.1
2017-Mar-18 07:33N 37°55' E 023°34'0 0.0
2017-Mar-18 06:33N 37°55' E 023°34'1 0.9
2017-Mar-18 05:34N 37°55' E 023°34'2 2.1
2017-Mar-18 04:22N 37°57' E 023°37'0 0.0
2017-Mar-18 03:31N 37°57' E 023°37'0 0.0
2017-Mar-18 02:31N 37°57' E 023°37'0 0.0
2017-Mar-18 01:31N 37°57' E 023°37'0 0.0
2017-Mar-18 00:31N 37°57' E 023°37'0 0.0
2017-Mar-17 23:31N 37°57' E 023°37'0 0.0
2017-Mar-17 22:31N 37°57' E 023°37'0 0.0
2017-Mar-17 21:31N 37°57' E 023°37'0 0.0
2017-Mar-17 20:28N 37°57' E 023°37'0 0.0
2017-Mar-17 19:31N 37°57' E 023°37'0 0.0
2017-Mar-17 18:31N 37°57' E 023°37'0 0.0
2017-Mar-17 17:28N 37°57' E 023°37'0 0.0
2017-Mar-17 16:31N 37°57' E 023°37'0 0.0
2017-Mar-17 15:28N 37°57' E 023°37'0 0.0
2017-Mar-17 14:28N 37°57' E 023°37'0 0.0
2017-Mar-17 12:28N 37°57' E 023°37'0 0.0
2017-Mar-17 11:22N 37°57' E 023°37'0 0.0
2017-Mar-17 10:28N 37°57' E 023°37'0 0.0
2017-Mar-17 09:28N 37°57' E 023°37'0 0.0
2017-Mar-17 08:10N 37°57' E 023°37'0 0.0
2017-Mar-17 07:28N 37°57' E 023°37'0 0.0
2017-Mar-17 06:34N 37°57' E 023°37'1 1.4
2017-Mar-17 05:33N 37°56' E 023°36'2 1.5
2017-Mar-17 04:34N 37°55' E 023°34'0 0.0
2017-Mar-17 03:33N 37°55' E 023°34'0 0.0
2017-Mar-17 02:33N 37°55' E 023°34'0 0.0
2017-Mar-17 01:33N 37°55' E 023°34'0 0.0
2017-Mar-17 00:33N 37°55' E 023°34'0 0.0
2017-Mar-16 23:33N 37°55' E 023°34'0 0.1
2017-Mar-16 22:33N 37°55' E 023°34'0 0.0
2017-Mar-16 21:33N 37°55' E 023°34'0 0.1
2017-Mar-16 20:33N 37°55' E 023°34'0 0.1
2017-Mar-16 19:33N 37°55' E 023°34'0 0.0
2017-Mar-16 18:33N 37°55' E 023°34'0 0.1
2017-Mar-16 17:33N 37°55' E 023°34'0 0.0
2017-Mar-16 16:33N 37°55' E 023°34'0 0.0
2017-Mar-16 15:33N 37°55' E 023°34'0 0.0
2017-Mar-16 14:33N 37°55' E 023°34'0 0.0
2017-Mar-16 13:30N 37°55' E 023°34'  
Track history (hours):
 
Tides and Currents Weather Stations Pressure Air Temp Water Temp Dewpoint Dewpoint Depression Visibility Wind Speed Wind Dir Waves Ship Positions

Aegean Princess

Last reported at 2017-Mar-26 12:33 UTC. Time now 2017-Mar-26 13:02 UTC.
Position N 36°08' W 005°22'.

Length 100 m.

Type: Ship. MMSI: 236111476.

Date/timePositionNaut miles runAvg speedWind from/ knotsBaromVisibWave heightAir tempDewpointWater temp
2017-Mar-26 12:33N 36°08' W 005°22'0 0.0
2017-Mar-26 11:33N 36°08' W 005°22'0 0.0
2017-Mar-26 10:33N 36°08' W 005°22'0 0.0
2017-Mar-26 09:33N 36°08' W 005°22'0 0.0
2017-Mar-26 06:33N 36°08' W 005°22'0 0.0
2017-Mar-26 05:33N 36°08' W 005°22'0 0.0
2017-Mar-26 04:33N 36°08' W 005°22'0 0.0
2017-Mar-26 03:34N 36°08' W 005°22'0 0.0
2017-Mar-26 02:33N 36°08' W 005°22'0 0.0
2017-Mar-26 01:33N 36°08' W 005°22'0 0.0
2017-Mar-26 00:29N 36°08' W 005°22'0 0.0
2017-Mar-25 23:33N 36°08' W 005°22'0 0.0
2017-Mar-25 22:31N 36°08' W 005°22'0 0.0
2017-Mar-25 21:26N 36°08' W 005°22'0 0.0
2017-Mar-25 20:33N 36°08' W 005°22'0 0.0
2017-Mar-25 19:28N 36°08' W 005°22'0 0.0
2017-Mar-25 17:33N 36°08' W 005°22'0 0.0
2017-Mar-25 16:33N 36°08' W 005°22'0 0.0
2017-Mar-25 15:24N 36°08' W 005°22'0 0.0
2017-Mar-25 14:32N 36°08' W 005°22'0 0.0
2017-Mar-25 10:26N 36°08' W 005°22'3 1.7
2017-Mar-25 08:33N 36°06' W 005°20'3 3.1
2017-Mar-25 07:30N 36°08' W 005°17'0 0.4
2017-Mar-25 06:33N 36°08' W 005°17'  
2017-Mar-21 06:30N 37°45' E 011°44'1110.5
2017-Mar-21 05:26N 37°40' E 011°57'910.2
2017-Mar-21 04:33N 37°36' E 012°07'1310.3
2017-Mar-21 03:20N 37°29' E 012°20'810.1
2017-Mar-21 02:29N 37°24' E 012°29'1210.5
2017-Mar-21 01:23N 37°19' E 012°42'1110.5
2017-Mar-21 00:19N 37°14' E 012°55'810.5
2017-Mar-20 23:33N 37°11' E 013°04'1010.2
2017-Mar-20 22:33N 37°06' E 013°15'1010.2
2017-Mar-20 21:33N 37°02' E 013°26'1010.0
2017-Mar-20 20:33N 36°58' E 013°38'1010.3
2017-Mar-20 19:33N 36°54' E 013°50'1110.5
2017-Mar-20 18:33N 36°50' E 014°02'10 9.8
2017-Mar-20 17:33N 36°46' E 014°13'10 9.8
2017-Mar-20 16:33N 36°42' E 014°24'10 9.7
2017-Mar-20 15:33N 36°39' E 014°35'10 9.7
2017-Mar-20 14:33N 36°36' E 014°47'10 9.5
2017-Mar-20 13:31N 36°34' E 014°59'10 9.7
2017-Mar-20 12:30N 36°34' E 015°11'9 9.8
2017-Mar-20 11:33N 36°33' E 015°23'10 9.7
2017-Mar-20 10:31N 36°33' E 015°36'9 9.8
2017-Mar-20 09:33N 36°33' E 015°47'10 9.8
2017-Mar-20 08:33N 36°33' E 015°60'10 9.6
2017-Mar-20 07:32N 36°32' E 016°12'365 8.1
2017-Mar-18 10:32N 37°38' E 023°42'10 9.9
2017-Mar-18 09:33N 37°47' E 023°38'8 8.4
2017-Mar-18 08:33N 37°55' E 023°34'0 0.1
2017-Mar-18 07:33N 37°55' E 023°34'0 0.0
2017-Mar-18 06:33N 37°55' E 023°34'1 0.9
2017-Mar-18 05:34N 37°55' E 023°34'2 2.1
2017-Mar-18 04:22N 37°57' E 023°37'0 0.0
2017-Mar-18 03:31N 37°57' E 023°37'0 0.0
2017-Mar-18 02:31N 37°57' E 023°37'0 0.0
2017-Mar-18 01:31N 37°57' E 023°37'0 0.0
2017-Mar-18 00:31N 37°57' E 023°37'0 0.0
2017-Mar-17 23:31N 37°57' E 023°37'0 0.0
2017-Mar-17 22:31N 37°57' E 023°37'0 0.0
2017-Mar-17 21:31N 37°57' E 023°37'0 0.0
2017-Mar-17 20:28N 37°57' E 023°37'0 0.0
2017-Mar-17 19:31N 37°57' E 023°37'0 0.0
2017-Mar-17 18:31N 37°57' E 023°37'0 0.0
2017-Mar-17 17:28N 37°57' E 023°37'0 0.0
2017-Mar-17 16:31N 37°57' E 023°37'0 0.0
2017-Mar-17 15:28N 37°57' E 023°37'0 0.0
2017-Mar-17 14:28N 37°57' E 023°37'0 0.0
2017-Mar-17 12:28N 37°57' E 023°37'0 0.0
2017-Mar-17 11:22N 37°57' E 023°37'0 0.0
2017-Mar-17 10:28N 37°57' E 023°37'0 0.0
2017-Mar-17 09:28N 37°57' E 023°37'0 0.0
2017-Mar-17 08:10N 37°57' E 023°37'0 0.0
2017-Mar-17 07:28N 37°57' E 023°37'0 0.0
2017-Mar-17 06:34N 37°57' E 023°37'1 1.4
2017-Mar-17 05:33N 37°56' E 023°36'2 1.5
2017-Mar-17 04:34N 37°55' E 023°34'0 0.0
2017-Mar-17 03:33N 37°55' E 023°34'0 0.0
2017-Mar-17 02:33N 37°55' E 023°34'0 0.0
2017-Mar-17 01:33N 37°55' E 023°34'0 0.0
2017-Mar-17 00:33N 37°55' E 023°34'0 0.0
2017-Mar-16 23:33N 37°55' E 023°34'0 0.1
2017-Mar-16 22:33N 37°55' E 023°34'0 0.0
2017-Mar-16 21:33N 37°55' E 023°34'0 0.1
2017-Mar-16 20:33N 37°55' E 023°34'0 0.1
2017-Mar-16 19:33N 37°55' E 023°34'0 0.0
2017-Mar-16 18:33N 37°55' E 023°34'0 0.1
2017-Mar-16 17:33N 37°55' E 023°34'0 0.0
2017-Mar-16 16:33N 37°55' E 023°34'0 0.0
2017-Mar-16 15:33N 37°55' E 023°34'0 0.0
2017-Mar-16 14:33N 37°55' E 023°34'0 0.0
2017-Mar-16 13:30N 37°55' E 023°34'  

Dump ship's entire track history